Laurel Fork, Kentucky
Current Conditions -  °F | °C
As of 7:15 AM on Monday 26 Jan 2015 (Local Time) from K1A6 Reporting Station
Moderate Rain Moderate Rain  
Wind Chill: 38°   Ceiling: 1400
Heat Index: 38°   Visibility: 7mi
Dew Point: 36°   Wind: 0mph
Humidity: 93%   Direction: NA
Pressure: 29.72"   Gusts: NA
Location:  36.6304°N, 83.8894°W
Report Text: K1A6 261215Z AUTO 00000KT 7SM RA OVC014 04/02 A2972 RMK AO2 T00350024
Loading
Personal Weather Stations






























Interactive Weather Map New forecast layout! Learn more

10-Day Weather Forecast

Advertisements
Track Severe Weather on mobile